Startpagina
METAR-TAF:

METAR-TAF

Vliegvelden :

Stanley, Falklandeilanden

breedte: 51-49S, lengte: 058-27W, hoogte: 74 m

Actueel weer

Dit bericht is 55 minuten geleden gemaakt, om 01:50 UTC
Wind 8 kt uit het noordnoordwesten
Temperatuur 6°C
Vochtigheid 56%
Druk 1005 hPa
Zicht 10 km of meer
geen wolken onder 1500 m en geen cumulonimbus

METAR: EGYP 210150Z 33008KT CAVOK 06/M02 Q1005 BLU

Tijdstip: 23:45 (02:45 UTC)

Verwachting

Dit bericht is 1 uur en het 31 minuten geleden gemaakt, om 01:14 UTC
Verwachting geldig van 21 om 03 UTC tot 21 om 21 UTC
Wind 12 kt uit het noordwesten
Zicht 10 km of meer
Weinig wolken op 2000 ft
Wijzigt naar
van 21 om 08 UTC tot 21 om 11 UTC
Wind 15 kt uit het westen
Wijzigt naar
van 21 om 13 UTC tot 21 om 15 UTC
Wind 9 kt uit het noordwesten

TAF: EGYP 210114Z 2103/2121 32012KT 9999 FEW020 BECMG 2108/2111 28015KT BECMG 2113/2115 31009KT

Waarnemingen en weersverwachtingen van meer dan 4000 vliegvelden (METAR en TAF).

De beschikbare stations zijn de gele en rode punten op de kaart.

Ga met uw muis naar het station om de naam te zien.

Klik dan om waarnemingen en weersverwachtingen te zien.

kaart wijzigen: klik op de groene knoppen met een zwart kruis om in te zoomen, op de groene knop met een streepje om uit te zoomen of op de groene pijlen voor aangrenzende kaarten.


METAR-TAF: